Time;durP1;ratioP1;P1;durP2;ratioP2;P2;SDS_P1;SDS_P2;PMS_P1;PMS_P2;Temp;Humidity;BMP_temperature;BMP_pressure;BME280_temperature;BME280_humidity;BME280_pressure;Samples;Min_cycle;Max_cycle;Signal;HPM_P1;HPM_P2
2023/10/06 00:02:28;;;;;;;18.33;15.00;;;;;;;13.39;97.20;101808.81;5033037;28;20203;-75
2023/10/06 00:04:58;;;;;;;21.67;16.00;;;;;;;13.36;97.02;101803.72;5033275;28;20313;-75
2023/10/06 00:07:27;;;;;;;19.93;16.17;;;;;;;13.37;97.17;101808.13;5033268;28;20211;-75
2023/10/06 00:09:59;;;;;;;20.23;15.40;;;;;;;13.39;97.17;101806.13;5033280;28;20276;-75
2023/10/06 00:12:31;;;;;;;23.10;15.57;;;;;;;13.36;96.55;101803.72;5033305;28;20206;-75
2023/10/06 00:15:07;;;;;;;21.60;15.87;;;;;;;13.40;96.99;101810.50;5033113;28;20237;-75
2023/10/06 00:17:36;;;;;;;20.80;15.60;;;;;;;13.39;96.64;101814.19;5033232;28;20289;-75
2023/10/06 00:20:21;;;;;;;19.13;15.27;;;;;;;13.38;96.94;101807.13;5032864;28;20608;-75
2023/10/06 00:22:50;;;;;;;22.00;16.73;;;;;;;13.35;96.82;101807.44;5033137;28;20191;-74
2023/10/06 00:25:24;;;;;;;23.33;16.53;;;;;;;13.33;96.79;101814.81;5032704;28;20309;-74
2023/10/06 00:27:52;;;;;;;19.00;14.60;;;;;;;13.31;96.79;101806.06;5033116;28;20187;-74
2023/10/06 00:30:25;;;;;;;16.27;14.67;;;;;;;13.29;96.48;101805.34;5032762;28;20217;-74
2023/10/06 00:32:54;;;;;;;18.50;14.50;;;;;;;13.35;95.82;101801.22;5033094;28;20191;-74
2023/10/06 00:35:30;;;;;;;17.13;13.73;;;;;;;13.32;95.79;101805.03;5032884;28;20231;-74
2023/10/06 00:38:04;;;;;;;22.23;14.03;;;;;;;13.28;95.78;101809.06;5033038;28;20286;-74
2023/10/06 00:40:36;;;;;;;18.23;13.90;;;;;;;13.22;95.55;101801.56;5033026;28;20202;-74
2023/10/06 00:43:08;;;;;;;22.47;14.60;;;;;;;13.17;95.89;101798.50;5036800;28;20201;-74
2023/10/06 00:45:39;;;;;;;19.70;14.27;;;;;;;13.15;96.46;101797.81;5036694;28;20270;-74
2023/10/06 00:48:14;;;;;;;16.90;13.63;;;;;;;13.08;95.93;101789.44;5036694;28;20214;-74
2023/10/06 00:50:43;;;;;;;17.03;13.60;;;;;;;13.04;96.06;101787.22;5036622;28;20277;-74
2023/10/06 00:53:15;;;;;;;19.30;12.90;;;;;;;13.01;95.99;101782.16;5036187;28;20293;-74
2023/10/06 00:55:46;;;;;;;16.27;12.57;;;;;;;13.05;95.99;101779.00;5036457;28;20211;-74
2023/10/06 00:58:16;;;;;;;18.50;12.07;;;;;;;13.04;95.88;101776.47;5036467;28;20207;-74
2023/10/06 01:00:44;;;;;;;18.10;12.27;;;;;;;13.04;95.06;101779.16;5036080;28;20574;-74
2023/10/06 01:03:15;;;;;;;15.83;10.77;;;;;;;13.03;95.66;101785.53;5036280;28;20207;-74
2023/10/06 01:05:46;;;;;;;18.83;12.07;;;;;;;13.04;95.69;101790.78;5036352;28;20191;-74
2023/10/06 01:08:16;;;;;;;18.90;12.60;;;;;;;13.01;95.44;101782.16;5036024;28;20191;-74
2023/10/06 01:10:51;;;;;;;16.37;11.33;;;;;;;12.98;95.25;101785.97;5035891;28;20297;-74
2023/10/06 01:13:20;;;;;;;14.60;11.37;;;;;;;12.99;95.31;101781.44;5036133;28;20205;-74
2023/10/06 01:15:49;;;;;;;15.73;11.10;;;;;;;12.97;95.32;101772.69;5036067;28;20318;-74
2023/10/06 01:18:23;;;;;;;15.20;10.67;;;;;;;12.96;95.93;101774.53;5036070;28;20217;-74
2023/10/06 01:20:51;;;;;;;15.97;10.97;;;;;;;12.98;95.75;101772.53;5036030;28;20282;-74
2023/10/06 01:23:22;;;;;;;14.20;10.63;;;;;;;12.98;95.94;101783.28;5035780;28;20305;-74
2023/10/06 01:25:54;;;;;;;18.73;11.10;;;;;;;12.99;95.62;101779.59;5035975;28;20192;-73
2023/10/06 01:28:24;;;;;;;16.83;9.80;;;;;;;13.01;95.34;101782.16;5035915;28;20222;-73
2023/10/06 01:30:52;;;;;;;18.33;10.07;;;;;;;12.98;95.16;101777.91;5035522;28;20210;-73
2023/10/06 01:33:21;;;;;;;14.10;10.00;;;;;;;13.01;94.75;101777.59;5035406;28;20639;-73
2023/10/06 01:35:50;;;;;;;16.17;10.10;;;;;;;12.99;95.14;101781.44;5035356;28;20708;-73
2023/10/06 01:38:22;;;;;;;13.80;9.47;;;;;;;12.93;94.64;101777.53;5035726;28;20242;-73
2023/10/06 01:40:53;;;;;;;18.23;10.57;;;;;;;12.94;94.53;101767.63;5035697;28;20191;-73
2023/10/06 01:43:29;;;;;;;15.00;9.60;;;;;;;12.92;94.83;101766.91;5035627;28;20195;-73
2023/10/06 01:45:59;;;;;;;17.77;9.83;;;;;;;12.86;94.81;101757.63;5035577;28;20198;-73
2023/10/06 01:48:29;;;;;;;17.83;9.33;;;;;;;12.85;94.54;101760.44;5035537;28;20209;-73
2023/10/06 01:50:58;;;;;;;16.27;9.00;;;;;;;12.83;94.31;101751.72;5035573;28;20191;-73
2023/10/06 01:53:32;;;;;;;14.20;8.67;;;;;;;12.83;94.58;101749.03;5035195;28;20260;-73
2023/10/06 01:56:06;;;;;;;20.00;9.87;;;;;;;12.82;93.96;101752.69;5035348;28;20214;-73
2023/10/06 01:58:37;;;;;;;14.03;8.73;;;;;;;12.83;93.89;101746.34;5035392;28;20265;-73
2023/10/06 02:01:07;;;;;;;12.87;8.43;;;;;;;12.86;93.06;101751.41;5035326;28;20276;-73
2023/10/06 02:03:39;;;;;;;12.63;7.60;;;;;;;12.88;93.51;101760.16;5035169;28;20231;-73
2023/10/06 02:06:13;;;;;;;15.13;9.43;;;;;;;12.84;93.84;101758.78;5035254;28;20258;-73
2023/10/06 02:08:43;;;;;;;12.97;8.73;;;;;;;12.82;93.14;101756.22;5034894;28;20657;-73
2023/10/06 02:11:12;;;;;;;15.53;8.77;;;;;;;12.81;93.79;101761.78;5035067;28;20272;-73
2023/10/06 02:13:41;;;;;;;13.70;9.00;;;;;;;12.79;93.19;101761.06;5034988;28;20226;-73
2023/10/06 02:16:09;;;;;;;13.93;9.27;;;;;;;12.73;93.83;101754.44;5034931;28;20234;-73
2023/10/06 02:18:40;;;;;;;16.10;8.70;;;;;;;12.73;93.61;101759.81;5034918;28;20202;-73
2023/10/06 02:21:14;;;;;;;14.63;8.70;;;;;;;12.73;93.51;101751.75;5034643;28;20191;-73
2023/10/06 02:23:44;;;;;;;18.07;10.20;;;;;;;12.68;93.99;101749.50;5034387;28;20772;-73
2023/10/06 02:26:13;;;;;;;13.83;8.87;;;;;;;12.68;93.75;101754.88;5034793;28;20572;-73
2023/10/06 02:28:48;;;;;;;14.37;8.17;;;;;;;12.65;93.65;101748.97;5034494;28;20602;-73
2023/10/06 02:31:21;;;;;;;13.70;8.97;;;;;;;12.63;93.52;101741.06;5035507;28;20201;-73
2023/10/06 02:33:51;;;;;;;14.27;8.63;;;;;;;12.59;92.63;101741.50;5034331;28;20594;-73
2023/10/06 02:36:21;;;;;;;14.27;8.30;;;;;;;12.57;93.47;101738.97;5034528;28;20238;-73
2023/10/06 02:38:51;;;;;;;15.87;8.20;;;;;;;12.61;93.35;101728.75;5034849;28;20290;-73
2023/10/06 02:41:25;;;;;;;15.80;8.37;;;;;;;12.59;93.35;101728.94;5034520;28;20256;-73
2023/10/06 02:43:57;;;;;;;15.93;9.00;;;;;;;12.58;92.77;101721.00;5034430;28;20230;-73
2023/10/06 02:46:26;;;;;;;19.20;9.83;;;;;;;12.57;93.65;101728.22;5034455;28;20187;-74
2023/10/06 02:48:55;;;;;;;13.07;9.07;;;;;;;12.52;93.55;101730.53;5034415;28;20206;-74
2023/10/06 02:51:32;;;;;;;14.33;9.23;;;;;;;12.53;92.80;101729.53;5034329;28;20297;-74
2023/10/06 02:56:50;;;;;;;21.20;9.03;;;;;;;12.50;92.86;101728.97;5023740;28;20280;-74
2023/10/06 02:59:22;;;;;;;18.40;10.10;;;;;;;12.42;93.08;101724.34;5034235;28;20195;-74
2023/10/06 03:01:52;;;;;;;14.57;8.80;;;;;;;12.44;93.46;101732.25;5034241;28;20226;-74
2023/10/06 03:04:25;;;;;;;14.43;8.90;;;;;;;12.42;92.63;101743.16;5033499;28;20230;-74
2023/10/06 03:06:55;;;;;;;15.33;8.83;;;;;;;12.41;92.71;101733.38;5033791;28;20191;-74
2023/10/06 03:09:36;;;;;;;14.33;8.60;;;;;;;12.41;92.64;101725.34;5033752;28;20597;-74
2023/10/06 03:12:14;;;;;;;15.80;9.10;;;;;;;12.33;93.37;101717.16;5033973;28;20194;-74
2023/10/06 03:14:43;;;;;;;16.80;9.17;;;;;;;12.38;92.98;101720.25;5034548;28;20249;-74
2023/10/06 03:17:13;;;;;;;19.23;9.20;;;;;;;12.33;92.49;101722.53;5033828;28;20265;-74
2023/10/06 03:19:43;;;;;;;15.47;9.63;;;;;;;12.33;92.73;101719.84;5033869;28;20198;-74
2023/10/06 03:22:13;;;;;;;18.47;10.80;;;;;;;12.30;92.80;101727.34;5034063;28;20211;-74
2023/10/06 03:24:57;;;;;;;20.20;9.83;;;;;;;12.29;92.71;101728.38;5033565;28;20246;-74
2023/10/06 03:27:28;;;;;;;17.83;9.63;;;;;;;12.29;93.22;101723.00;5033722;28;20238;-74
2023/10/06 03:30:11;;;;;;;18.50;10.37;;;;;;;12.28;92.96;101724.84;5033672;28;20221;-74
2023/10/06 03:32:43;;;;;;;21.03;10.50;;;;;;;12.27;92.68;101730.34;5033688;28;20195;-74
2023/10/06 03:35:21;;;;;;;20.23;10.60;;;;;;;12.26;93.05;101726.78;5033565;28;20234;-74
2023/10/06 03:37:53;;;;;;;17.10;10.17;;;;;;;12.20;92.58;101728.25;5033563;28;20217;-74
2023/10/06 03:40:23;;;;;;;15.87;9.60;;;;;;;12.19;93.31;101726.53;5033608;28;20293;-74
2023/10/06 03:42:53;;;;;;;15.20;9.23;;;;;;;12.17;93.35;101722.31;5033529;28;20322;-74
2023/10/06 03:45:29;;;;;;;21.37;9.60;;;;;;;12.20;92.66;101732.75;5033463;28;20289;-75
2023/10/06 03:48:10;;;;;;;15.03;9.87;;;;;;;12.13;93.78;101726.28;5033504;28;20183;-74
2023/10/06 03:50:40;;;;;;;15.40;8.87;;;;;;;12.12;93.82;101729.97;5033541;28;20281;-74
2023/10/06 03:53:13;;;;;;;19.23;9.20;;;;;;;12.12;93.01;101725.44;5033108;28;20711;-74
2023/10/06 03:55:45;;;;;;;15.57;9.53;;;;;;;12.08;92.73;101723.22;5033414;28;20206;-74
2023/10/06 03:58:18;;;;;;;15.37;9.57;;;;;;;12.10;93.05;101731.94;5033344;28;20215;-75
2023/10/06 04:00:51;;;;;;;16.57;8.87;;;;;;;12.07;93.50;101727.72;5033107;28;20668;-75
2023/10/06 04:03:21;;;;;;;15.33;9.37;;;;;;;12.06;93.59;101723.34;5033305;28;20191;-75
2023/10/06 04:05:51;;;;;;;13.83;8.70;;;;;;;12.01;93.85;101714.91;5033348;28;20237;-75
2023/10/06 04:08:22;;;;;;;16.93;8.67;;;;;;;11.99;94.32;101716.00;5033274;28;20210;-75
2023/10/06 04:10:53;;;;;;;16.80;8.90;;;;;;;11.96;93.90;101711.78;5033308;28;20198;-75
2023/10/06 04:13:23;;;;;;;16.27;8.33;;;;;;;11.96;94.23;101722.53;5032902;28;20548;-75
2023/10/06 04:15:53;;;;;;;14.70;9.00;;;;;;;11.97;94.94;101718.00;5033674;28;20207;-75
2023/10/06 04:18:23;;;;;;;14.27;8.10;;;;;;;11.95;94.74;101720.81;5037118;28;20265;-75
2023/10/06 04:20:53;;;;;;;14.10;7.97;;;;;;;11.95;94.88;101722.69;5037211;28;20191;-75
2023/10/06 04:23:23;;;;;;;14.90;8.27;;;;;;;11.95;94.17;101709.28;5036554;28;20646;-75
2023/10/06 04:25:54;;;;;;;13.00;7.30;;;;;;;11.92;93.97;101712.22;5036796;28;20567;-75
2023/10/06 04:28:27;;;;;;;13.07;7.30;;;;;;;11.94;93.65;101710.25;5037070;28;20203;-75
2023/10/06 04:31:00;;;;;;;12.83;6.67;;;;;;;11.99;93.46;101710.66;5036698;28;20195;-75
2023/10/06 04:33:30;;;;;;;12.67;6.87;;;;;;;12.02;93.75;101715.75;5036566;28;20195;-75
2023/10/06 04:36:07;;;;;;;10.23;6.30;;;;;;;12.01;93.25;101709.53;5036383;28;20225;-75
2023/10/06 04:38:38;;;;;;;12.97;5.83;;;;;;;12.03;92.83;101712.06;5036823;28;20301;-75
2023/10/06 04:41:08;;;;;;;10.07;5.37;;;;;;;12.06;93.51;101692.97;5036858;28;20202;-75
2023/10/06 04:43:44;;;;;;;11.63;5.80;;;;;;;12.05;92.45;101702.03;5036893;28;20223;-74
2023/10/06 04:46:13;;;;;;;10.57;5.30;;;;;;;12.06;92.85;101699.19;5036542;28;20289;-74
2023/10/06 04:48:42;;;;;;;11.27;4.97;;;;;;;12.06;92.79;101692.97;5036719;28;20207;-74
2023/10/06 04:51:11;;;;;;;9.97;5.03;;;;;;;12.06;92.77;101693.81;5036669;28;20206;-75
2023/10/06 04:53:38;;;;;;;11.50;5.60;;;;;;;12.10;92.06;101689.00;5036571;28;20302;-75
2023/10/06 04:56:08;;;;;;;10.50;5.03;;;;;;;12.10;91.77;101683.63;5036534;28;20210;-75
2023/10/06 04:58:39;;;;;;;9.80;5.20;;;;;;;12.13;91.50;101686.03;5036525;28;20218;-75
2023/10/06 05:01:12;;;;;;;12.67;5.70;;;;;;;12.12;91.71;101677.13;5036197;28;20187;-75
2023/10/06 05:03:43;;;;;;;12.00;5.73;;;;;;;12.08;92.14;101681.13;5036403;28;20227;-75
2023/10/06 05:06:16;;;;;;;11.57;5.73;;;;;;;12.09;92.01;101673.88;5036358;28;20199;-75
2023/10/06 05:08:47;;;;;;;9.87;5.60;;;;;;;12.09;91.76;101671.19;5036315;28;20249;-75
2023/10/06 05:11:17;;;;;;;13.70;6.30;;;;;;;12.05;91.85;101659.09;5036274;28;20245;-75
2023/10/06 05:13:49;;;;;;;10.57;4.77;;;;;;;12.08;92.04;101658.78;5036403;28;20223;-75
2023/10/06 05:16:19;;;;;;;12.00;5.60;;;;;;;12.11;91.59;101653.13;5036179;28;20241;-76
2023/10/06 05:18:48;;;;;;;9.13;5.67;;;;;;;12.09;91.60;101644.34;5036941;28;20329;-75
2023/10/06 05:21:17;;;;;;;11.13;5.53;;;;;;;12.11;91.66;101642.38;5036069;28;20206;-75
2023/10/06 05:23:45;;;;;;;13.07;5.63;;;;;;;12.07;91.19;101652.56;5035719;28;20245;-75
2023/10/06 05:26:14;;;;;;;11.47;6.23;;;;;;;12.09;91.08;101660.47;5035629;28;20581;-75
2023/10/06 05:28:44;;;;;;;10.47;6.40;;;;;;;12.08;91.70;101681.13;5035507;28;20207;-75
2023/10/06 05:31:15;;;;;;;9.20;6.23;;;;;;;12.08;91.26;101680.25;5035890;28;20210;-75
2023/10/06 05:33:44;;;;;;;11.97;6.23;;;;;;;12.10;91.63;101683.63;5035737;28;20231;-75
2023/10/06 05:36:13;;;;;;;14.13;6.53;;;;;;;12.06;91.95;101688.44;5035777;28;20203;-75
2023/10/06 05:38:47;;;;;;;11.97;6.57;;;;;;;12.07;91.31;101694.66;5035461;28;20684;-75
2023/10/06 05:41:16;;;;;;;13.57;6.27;;;;;;;12.04;91.70;101690.44;5035801;28;20243;-75
2023/10/06 05:43:45;;;;;;;10.27;5.93;;;;;;;12.07;92.19;101692.84;5035355;28;20223;-75
2023/10/06 05:46:15;;;;;;;12.03;6.03;;;;;;;12.06;91.43;101692.97;5035852;28;20214;-76
2023/10/06 05:48:43;;;;;;;15.90;6.13;;;;;;;12.03;92.07;101687.91;5035621;28;20211;-75
2023/10/06 05:51:14;;;;;;;10.30;5.33;;;;;;;12.04;92.26;101697.66;5035515;28;20734;-75
2023/10/06 05:53:43;;;;;;;14.53;5.40;;;;;;;12.05;91.59;101696.66;5045087;28;20237;-74
2023/10/06 05:56:14;;;;;;;10.80;5.37;;;;;;;12.03;91.62;101698.63;5054337;28;20207;-74
2023/10/06 05:58:44;;;;;;;9.67;4.63;;;;;;;12.05;91.58;101702.03;5043721;28;20219;-76
2023/10/06 06:01:14;;;;;;;12.07;5.37;;;;;;;12.04;91.58;101690.44;5058063;28;20206;-74
2023/10/06 06:03:45;;;;;;;9.10;5.17;;;;;;;12.04;91.58;101678.84;5059845;28;20210;-75
2023/10/06 06:06:21;;;;;;;10.60;4.97;;;;;;;12.03;92.54;101669.09;5057343;28;20197;-75
2023/10/06 06:08:51;;;;;;;9.07;4.90;;;;;;;12.04;91.58;101668.13;5042384;28;20190;-75
2023/10/06 06:11:20;;;;;;;8.77;4.90;;;;;;;12.07;92.18;101662.47;5035175;28;20214;-75
2023/10/06 06:13:49;;;;;;;7.93;4.63;;;;;;;12.07;92.81;101667.81;5035172;28;20223;-75
2023/10/06 06:16:44;;;;;;;11.43;5.47;;;;;;;12.08;92.08;101673.06;5035193;28;20210;-75
2023/10/06 06:19:13;;;;;;;8.80;6.20;;;;;;;12.13;91.82;101672.59;5034643;28;20689;-75
2023/10/06 06:21:42;;;;;;;8.00;4.70;;;;;;;12.10;92.57;101673.75;5034626;28;20651;-76
2023/10/06 06:24:10;;;;;;;10.73;5.00;;;;;;;12.13;92.57;101668.06;5034529;28;20245;-76
2023/10/06 06:26:39;;;;;;;9.27;4.57;;;;;;;12.14;91.71;101667.09;5034826;28;20210;-76
2023/10/06 06:29:09;;;;;;;9.07;4.83;;;;;;;12.16;91.90;101669.63;5034462;28;20214;-76
2023/10/06 06:31:41;;;;;;;8.73;4.87;;;;;;;12.18;92.96;101670.31;5034767;28;20605;-76
2023/10/06 06:34:09;;;;;;;11.70;5.07;;;;;;;12.19;92.96;101678.22;5034362;28;20708;-74
2023/10/06 06:36:38;;;;;;;11.43;5.30;;;;;;;12.24;91.48;101680.47;5034249;28;20627;-75
2023/10/06 06:39:10;;;;;;;11.33;4.97;;;;;;;12.29;91.78;101688.09;5033924;28;20627;-75
2023/10/06 06:41:38;;;;;;;12.10;5.60;;;;;;;12.30;92.19;101681.69;5034593;28;20270;-76
2023/10/06 06:44:07;;;;;;;12.60;5.33;;;;;;;12.34;92.49;101677.72;5034495;28;20281;-76
2023/10/06 06:46:38;;;;;;;11.00;4.97;;;;;;;12.35;92.31;101663.31;5034782;28;20210;-75
2023/10/06 06:49:08;;;;;;;10.83;5.10;;;;;;;12.37;92.40;101664.84;5035388;28;20201;-75
2023/10/06 06:51:37;;;;;;;14.13;5.40;;;;;;;12.41;91.83;101660.03;5034337;28;20233;-76
2023/10/06 06:54:06;;;;;;;11.20;6.00;;;;;;;12.43;92.43;101674.16;5033959;28;20258;-75
2023/10/06 06:56:35;;;;;;;8.43;5.23;;;;;;;12.44;92.25;101665.94;5033949;28;20664;-76
2023/10/06 06:59:04;;;;;;;13.77;5.30;;;;;;;12.45;92.52;101675.69;5033834;28;20318;-76
2023/10/06 07:01:33;;;;;;;11.83;5.80;;;;;;;12.45;91.83;101656.91;5034213;28;20207;-76
2023/10/06 07:04:03;;;;;;;8.47;4.97;;;;;;;12.44;91.98;101668.63;5034093;28;20231;-76
2023/10/06 07:06:33;;;;;;;11.03;5.67;;;;;;;12.45;91.92;101667.66;5034078;28;20301;-75
2023/10/06 07:09:02;;;;;;;12.27;5.13;;;;;;;12.45;91.28;101656.06;5034056;28;20285;-76
2023/10/06 07:11:30;;;;;;;10.33;5.97;;;;;;;12.46;91.74;101652.38;5033763;28;20654;-76
2023/10/06 07:13:59;;;;;;;10.10;4.90;;;;;;;12.49;91.63;101646.72;5033906;28;20317;-75
2023/10/06 07:16:28;;;;;;;16.73;5.43;;;;;;;12.52;91.08;101646.41;5033957;28;20238;-75
2023/10/06 07:18:57;;;;;;;10.07;5.50;;;;;;;12.57;91.90;101654.84;5033830;28;20272;-76
2023/10/06 07:21:25;;;;;;;9.27;4.80;;;;;;;12.60;91.21;101658.06;5033970;28;20206;-75
2023/10/06 07:23:56;;;;;;;11.23;4.80;;;;;;;12.63;91.24;101649.72;5033524;28;20296;-75
2023/10/06 07:26:25;;;;;;;11.10;4.77;;;;;;;12.68;91.36;101644.72;5033800;28;20222;-76
2023/10/06 07:28:55;;;;;;;9.40;4.70;;;;;;;12.73;90.21;101638.91;5033493;28;20203;-76
2023/10/06 07:31:24;;;;;;;9.87;4.60;;;;;;;12.78;89.56;101643.81;5033744;28;20207;-76
2023/10/06 07:33:54;;;;;;;9.53;5.07;;;;;;;12.81;89.63;101640.84;5033634;28;20254;-76
2023/10/06 07:36:22;;;;;;;11.90;4.70;;;;;;;12.85;90.15;101647.56;5033650;28;20233;-76
2023/10/06 07:38:52;;;;;;;9.67;4.77;;;;;;;12.90;89.81;101646.13;5033546;28;20258;-76
2023/10/06 07:41:23;;;;;;;10.73;4.80;;;;;;;12.94;89.03;101642.16;5033601;28;20308;-76
2023/10/06 07:43:53;;;;;;;13.43;4.60;;;;;;;12.99;89.52;101645.22;5033559;28;20232;-76
2023/10/06 07:46:22;;;;;;;10.50;4.37;;;;;;;13.05;89.88;101639.22;5033527;28;20621;-76
2023/10/06 07:48:51;;;;;;;8.07;4.80;;;;;;;13.08;89.25;101633.50;5033440;28;20202;-76
2023/10/06 07:51:20;;;;;;;9.37;4.73;;;;;;;13.15;89.28;101623.88;5033398;28;20214;-75
2023/10/06 07:53:48;;;;;;;10.83;5.10;;;;;;;13.17;89.01;101612.97;5033821;28;20231;-75
2023/10/06 07:56:18;;;;;;;7.77;4.40;;;;;;;13.24;88.04;101599.75;5033081;28;20554;-75
2023/10/06 07:58:52;;;;;;;10.87;4.40;;;;;;;13.26;88.63;101603.94;5033364;28;20214;-75
2023/10/06 08:01:21;;;;;;;11.67;5.30;;;;;;;13.31;87.40;101596.28;5033464;28;20187;-77
2023/10/06 08:03:50;;;;;;;10.13;4.10;;;;;;;13.34;86.90;101604.03;5033304;28;20257;-74
2023/10/06 08:06:20;;;;;;;10.87;4.40;;;;;;;13.38;87.78;101604.56;5033369;28;20211;-74
2023/10/06 08:08:49;;;;;;;11.40;4.50;;;;;;;13.47;87.65;101607.13;5032979;28;20548;-74
2023/10/06 08:11:17;;;;;;;9.60;4.40;;;;;;;13.64;86.30;101624.22;5033292;28;20207;-74
2023/10/06 08:13:52;;;;;;;13.40;4.63;;;;;;;13.72;86.11;101610.81;5033282;28;20231;-74
2023/10/06 08:16:21;;;;;;;8.43;3.83;;;;;;;13.78;85.46;101606.66;5032991;28;20610;-74
2023/10/06 08:18:49;;;;;;;8.67;4.23;;;;;;;13.92;85.23;101606.03;5033182;28;20206;-74
2023/10/06 08:21:18;;;;;;;9.87;4.17;;;;;;;14.02;85.74;101596.84;5033180;28;20203;-74
2023/10/06 08:23:47;;;;;;;11.00;4.20;;;;;;;14.10;84.33;101598.72;5032903;28;20242;-74
2023/10/06 08:26:16;;;;;;;8.63;3.90;;;;;;;14.13;84.62;101579.56;5032864;28;20613;-74
2023/10/06 08:28:45;;;;;;;9.83;3.90;;;;;;;14.12;83.73;101585.94;5033183;28;20211;-74
2023/10/06 08:31:18;;;;;;;10.50;3.70;;;;;;;14.21;83.22;101590.38;5033126;28;20203;-75
2023/10/06 08:33:47;;;;;;;10.83;3.53;;;;;;;14.23;82.56;101593.72;5033021;28;20231;-75
2023/10/06 08:36:16;;;;;;;9.03;3.60;;;;;;;14.25;82.46;101589.00;5033098;28;20210;-75
2023/10/06 08:38:46;;;;;;;7.47;3.43;;;;;;;14.29;82.41;101597.59;5032995;28;20293;-75
2023/10/06 08:41:16;;;;;;;9.33;3.50;;;;;;;14.34;83.07;101585.38;5033147;28;20278;-73
2023/10/06 08:43:46;;;;;;;10.27;3.90;;;;;;;14.38;81.78;101581.38;5032742;28;20746;-73
2023/10/06 08:46:17;;;;;;;9.27;3.40;;;;;;;14.41;81.83;101578.34;5033508;28;20202;-72
2023/10/06 08:48:45;;;;;;;8.17;3.13;;;;;;;14.49;81.15;101582.88;5033360;28;20191;-73
2023/10/06 08:51:15;;;;;;;8.80;3.33;;;;;;;14.49;81.34;101583.72;5033356;28;20210;-74
2023/10/06 08:53:49;;;;;;;12.80;3.73;;;;;;;14.55;81.43;101571.47;5033632;28;20313;-74
2023/10/06 08:56:19;;;;;;;9.97;3.53;;;;;;;14.61;80.90;101582.41;5033582;28;20205;-73
2023/10/06 08:58:48;;;;;;;11.77;3.10;;;;;;;14.70;80.44;101564.38;5033306;28;20298;-73
2023/10/06 09:01:20;;;;;;;9.50;3.87;;;;;;;14.75;81.43;101577.38;5033450;28;20292;-73
2023/10/06 09:03:49;;;;;;;6.60;3.50;;;;;;;14.85;80.42;101573.50;5036098;28;20226;-74
2023/10/06 09:06:19;;;;;;;10.23;3.73;;;;;;;14.89;80.60;101579.41;5036575;28;20238;-74
2023/10/06 09:08:49;;;;;;;10.93;3.57;;;;;;;14.89;80.14;101574.00;5036673;28;20246;-74
2023/10/06 09:11:20;;;;;;;4.77;2.67;;;;;;;14.86;81.27;101571.66;5036422;28;20187;-74
2023/10/06 09:14:07;;;;;;;13.63;3.90;;;;;;;14.87;80.36;101565.22;5037083;28;20226;-74
2023/10/06 09:16:51;;;;;;;7.57;3.10;;;;;;;14.88;80.46;101573.16;5036466;28;20237;-74
2023/10/06 09:19:19;;;;;;;9.07;3.30;;;;;;;14.90;79.75;101583.75;5036396;28;20264;-74
2023/10/06 09:22:09;;;;;;;7.67;3.27;;;;;;;14.91;80.18;101590.84;5036288;28;20293;-73
2023/10/06 09:24:39;;;;;;;5.80;3.10;;;;;;;14.92;79.90;101596.09;5033206;28;20649;-73
2023/10/06 09:27:28;;;;;;;6.27;3.10;;;;;;;14.99;79.11;101593.56;5036145;28;20605;-73
2023/10/06 09:30:01;;;;;;;6.23;3.00;;;;;;;15.00;77.83;101597.97;5036092;28;20191;-73
2023/10/06 09:32:31;;;;;;;8.27;3.57;;;;;;;15.02;79.55;101590.53;5036010;28;20195;-74
2023/10/06 09:35:02;;;;;;;10.30;3.90;;;;;;;15.04;78.73;101592.03;5035905;28;20231;-74
2023/10/06 09:37:31;;;;;;;8.30;3.40;;;;;;;15.04;78.11;101583.09;5035895;28;20199;-74
2023/10/06 09:40:15;;;;;;;8.07;3.30;;;;;;;15.06;78.69;101575.69;5035732;28;20237;-74
2023/10/06 09:42:47;;;;;;;10.90;3.57;;;;;;;15.11;78.14;101568.78;5035560;28;20321;-71
2023/10/06 09:45:18;;;;;;;10.00;3.40;;;;;;;15.12;77.83;101556.13;5035312;28;20666;-74
2023/10/06 09:47:51;;;;;;;8.77;3.13;;;;;;;15.14;78.57;101560.34;5035353;28;20195;-73
2023/10/06 09:50:20;;;;;;;8.47;3.63;;;;;;;15.13;78.26;101555.13;5035601;28;20183;-73
2023/10/06 09:52:50;;;;;;;6.90;2.83;;;;;;;15.21;76.73;101555.09;5035524;28;20213;-75
2023/10/06 09:55:20;;;;;;;7.03;2.90;;;;;;;15.23;77.65;101551.25;5035464;28;20233;-75
2023/10/06 09:57:50;;;;;;;6.93;2.97;;;;;;;15.32;77.55;101543.97;5035124;28;20206;-74
2023/10/06 10:00:21;;;;;;;6.57;3.07;;;;;;;15.42;75.30;101550.00;5034994;28;20705;-74
2023/10/06 10:02:51;;;;;;;7.23;2.83;;;;;;;15.45;74.82;101544.28;5035325;28;20194;-74
2023/10/06 10:05:22;;;;;;;5.83;3.40;;;;;;;15.52;74.93;101550.69;5035289;28;20226;-74
2023/10/06 10:07:50;;;;;;;6.83;3.10;;;;;;;15.57;74.98;101553.72;5034944;28;20217;-74
2023/10/06 10:10:22;;;;;;;6.40;2.83;;;;;;;15.62;74.69;101551.34;5035733;28;20199;-75
2023/10/06 10:13:09;;;;;;;9.80;3.13;;;;;;;15.63;74.53;101536.84;5034925;28;20187;-75
2023/10/06 10:15:53;;;;;;;6.70;3.17;;;;;;;15.70;74.25;101536.97;5035831;28;20269;-75
2023/10/06 10:18:30;;;;;;;6.03;2.63;;;;;;;15.73;74.82;101544.72;5034728;28;20543;-75
2023/10/06 10:20:59;;;;;;;7.40;2.73;;;;;;;15.79;73.14;101535.09;5034959;28;20218;-75
2023/10/06 10:23:29;;;;;;;6.60;3.43;;;;;;;15.88;72.50;101539.44;5035193;28;20211;-76
2023/10/06 10:26:14;;;;;;;7.00;2.90;;;;;;;15.91;72.90;101533.69;5034616;28;20714;-75
2023/10/06 10:28:43;;;;;;;7.50;2.90;;;;;;;15.94;72.47;101527.94;5034545;28;20641;-75
2023/10/06 10:31:17;;;;;;;6.30;2.57;;;;;;;15.94;72.73;101525.22;5034787;28;20284;-74
2023/10/06 10:33:48;;;;;;;7.40;2.83;;;;;;;16.03;71.46;101526.88;5034687;28;20265;-75
2023/10/06 10:36:22;;;;;;;8.37;2.80;;;;;;;16.10;71.58;101528.69;5034402;28;20550;-75
2023/10/06 10:39:09;;;;;;;5.40;2.70;;;;;;;16.30;71.37;101529.06;5034682;28;20285;-75
2023/10/06 10:41:40;;;;;;;8.03;2.70;;;;;;;16.41;69.60;101520.56;5034524;28;20221;-75
2023/10/06 10:44:11;;;;;;;10.17;3.50;;;;;;;16.38;70.75;101526.34;5034486;28;20319;-75
2023/10/06 10:46:56;;;;;;;8.23;2.80;;;;;;;16.49;69.13;101523.22;5034541;28;20194;-75
2023/10/06 10:49:32;;;;;;;9.57;2.63;;;;;;;16.63;69.13;101525.19;5034222;28;20241;-75
2023/10/06 10:52:04;;;;;;;6.37;2.33;;;;;;;16.60;68.47;101520.13;5034410;28;20253;-74
2023/10/06 10:54:34;;;;;;;7.17;3.20;;;;;;;16.56;68.02;101508.00;5034292;28;20373;-74
2023/10/06 10:57:09;;;;;;;12.03;3.23;;;;;;;16.58;67.57;101510.50;5034300;28;20298;-74
2023/10/06 11:00:15;;;;;;;6.67;2.97;;;;;;;16.55;68.56;101500.91;5034272;28;20614;-73
2023/10/06 11:03:00;;;;;;;9.97;3.00;;;;;;;16.49;68.77;101506.16;5034284;28;20199;-73
2023/10/06 11:05:31;;;;;;;4.13;2.50;;;;;;;16.56;67.32;101501.75;5034060;28;20784;-74
2023/10/06 11:08:01;;;;;;;7.43;2.43;;;;;;;16.62;67.68;101496.44;5034750;28;20206;-74
2023/10/06 11:10:33;;;;;;;9.77;3.27;;;;;;;16.65;67.93;101485.28;5033818;28;20642;-74
2023/10/06 11:13:17;;;;;;;5.90;2.73;;;;;;;16.69;67.90;101483.03;5034472;28;20214;-75
2023/10/06 11:15:46;;;;;;;6.53;3.20;;;;;;;16.77;67.35;101487.56;5033717;28;20641;-74
2023/10/06 11:18:17;;;;;;;6.33;3.00;;;;;;;16.80;67.37;101492.59;5033923;28;20301;-74
2023/10/06 11:20:48;;;;;;;8.00;2.80;;;;;;;16.81;66.18;101488.88;5033602;28;20207;-74
2023/10/06 11:23:17;;;;;;;5.13;3.00;;;;;;;16.83;66.37;101482.25;5033729;28;20294;-74
2023/10/06 11:25:50;;;;;;;5.37;2.83;;;;;;;16.80;67.49;101485.31;5033163;28;20195;-74
2023/10/06 11:28:19;;;;;;;5.53;2.60;;;;;;;16.79;68.28;101489.03;5033902;28;20343;-75
2023/10/06 11:30:49;;;;;;;4.53;2.67;;;;;;;16.79;66.62;101477.38;5033691;28;20238;-74
2023/10/06 11:33:19;;;;;;;7.43;2.97;;;;;;;16.82;66.95;101485.13;5033657;28;20293;-74
2023/10/06 11:35:53;;;;;;;7.00;3.13;;;;;;;16.86;66.35;101484.59;5033761;28;20187;-75
2023/10/06 11:38:21;;;;;;;5.87;2.53;;;;;;;16.87;67.75;101471.91;5033777;28;20195;-75
2023/10/06 11:40:50;;;;;;;5.27;2.80;;;;;;;16.89;67.45;101470.69;5033578;28;20226;-75
2023/10/06 11:43:21;;;;;;;6.90;3.00;;;;;;;16.88;67.25;101469.03;5033575;28;20261;-74